sensor_id;sensor_type;location;lat;lon;timestamp;P1;durP1;ratioP1;P2;durP2;ratioP2
53263;SDS011;39153;52.680;6.172;2023-05-02T00:00:40;20.95;;;10.63;;
53263;SDS011;39153;52.680;6.172;2023-05-02T00:03:09;21.65;;;10.32;;
53263;SDS011;39153;52.680;6.172;2023-05-02T00:05:36;19.10;;;9.45;;
53263;SDS011;39153;52.680;6.172;2023-05-02T00:08:01;19.27;;;8.88;;
53263;SDS011;39153;52.680;6.172;2023-05-02T00:10:27;15.35;;;9.13;;
53263;SDS011;39153;52.680;6.172;2023-05-02T00:12:53;19.98;;;9.07;;
53263;SDS011;39153;52.680;6.172;2023-05-02T00:15:18;17.38;;;9.18;;
53263;SDS011;39153;52.680;6.172;2023-05-02T00:17:44;20.65;;;9.00;;
53263;SDS011;39153;52.680;6.172;2023-05-02T00:20:10;17.80;;;6.88;;
53263;SDS011;39153;52.680;6.172;2023-05-02T00:22:36;19.30;;;7.53;;
53263;SDS011;39153;52.680;6.172;2023-05-02T00:25:02;18.23;;;6.70;;
53263;SDS011;39153;52.680;6.172;2023-05-02T00:27:29;17.63;;;5.72;;
53263;SDS011;39153;52.680;6.172;2023-05-02T00:29:55;11.00;;;4.72;;
53263;SDS011;39153;52.680;6.172;2023-05-02T00:32:22;13.00;;;5.00;;
53263;SDS011;39153;52.680;6.172;2023-05-02T00:34:47;13.75;;;4.40;;
53263;SDS011;39153;52.680;6.172;2023-05-02T00:37:13;12.82;;;3.92;;
53263;SDS011;39153;52.680;6.172;2023-05-02T00:39:39;14.95;;;4.35;;
53263;SDS011;39153;52.680;6.172;2023-05-02T00:42:04;11.05;;;3.60;;
53263;SDS011;39153;52.680;6.172;2023-05-02T00:44:30;12.70;;;3.05;;
53263;SDS011;39153;52.680;6.172;2023-05-02T00:46:56;9.82;;;3.35;;
53263;SDS011;39153;52.680;6.172;2023-05-02T00:49:25;7.47;;;2.97;;
53263;SDS011;39153;52.680;6.172;2023-05-02T00:51:50;9.82;;;2.72;;
53263;SDS011;39153;52.680;6.172;2023-05-02T00:54:17;11.70;;;3.50;;
53263;SDS011;39153;52.680;6.172;2023-05-02T00:56:43;9.63;;;2.83;;
53263;SDS011;39153;52.680;6.172;2023-05-02T00:59:09;8.77;;;2.95;;
53263;SDS011;39153;52.680;6.172;2023-05-02T01:01:38;10.07;;;2.92;;
53263;SDS011;39153;52.680;6.172;2023-05-02T01:06:52;12.45;;;3.67;;
53263;SDS011;39153;52.680;6.172;2023-05-02T01:14:44;14.38;;;3.88;;
53263;SDS011;39153;52.680;6.172;2023-05-02T01:17:14;11.93;;;3.45;;
53263;SDS011;39153;52.680;6.172;2023-05-02T01:19:44;10.75;;;3.20;;
53263;SDS011;39153;52.680;6.172;2023-05-02T01:22:22;13.32;;;3.30;;
53263;SDS011;39153;52.680;6.172;2023-05-02T01:30:42;8.40;;;3.05;;
53263;SDS011;39153;52.680;6.172;2023-05-02T01:33:10;11.43;;;3.20;;
53263;SDS011;39153;52.680;6.172;2023-05-02T01:35:39;9.23;;;3.30;;
53263;SDS011;39153;52.680;6.172;2023-05-02T01:38:07;11.60;;;3.08;;
53263;SDS011;39153;52.680;6.172;2023-05-02T01:40:37;8.05;;;3.25;;
53263;SDS011;39153;52.680;6.172;2023-05-02T01:43:05;13.60;;;3.80;;
53263;SDS011;39153;52.680;6.172;2023-05-02T01:45:32;14.98;;;4.07;;
53263;SDS011;39153;52.680;6.172;2023-05-02T01:48:00;11.50;;;3.60;;
53263;SDS011;39153;52.680;6.172;2023-05-02T01:50:27;13.02;;;3.42;;
53263;SDS011;39153;52.680;6.172;2023-05-02T01:52:53;11.10;;;3.30;;
53263;SDS011;39153;52.680;6.172;2023-05-02T01:55:21;9.45;;;3.75;;
53263;SDS011;39153;52.680;6.172;2023-05-02T01:57:49;11.75;;;3.83;;
53263;SDS011;39153;52.680;6.172;2023-05-02T02:00:18;12.88;;;3.92;;
53263;SDS011;39153;52.680;6.172;2023-05-02T02:02:45;10.95;;;3.17;;
53263;SDS011;39153;52.680;6.172;2023-05-02T02:05:13;11.38;;;3.50;;
53263;SDS011;39153;52.680;6.172;2023-05-02T02:07:40;13.32;;;3.72;;
53263;SDS011;39153;52.680;6.172;2023-05-02T02:10:07;11.70;;;3.85;;
53263;SDS011;39153;52.680;6.172;2023-05-02T02:12:53;8.38;;;3.10;;
53263;SDS011;39153;52.680;6.172;2023-05-02T02:15:34;8.80;;;3.03;;
53263;SDS011;39153;52.680;6.172;2023-05-02T02:18:08;12.75;;;3.20;;
53263;SDS011;39153;52.680;6.172;2023-05-02T02:20:36;9.02;;;3.08;;
53263;SDS011;39153;52.680;6.172;2023-05-02T02:23:04;9.45;;;3.30;;
53263;SDS011;39153;52.680;6.172;2023-05-02T02:25:33;8.25;;;3.08;;
53263;SDS011;39153;52.680;6.172;2023-05-02T02:27:59;7.63;;;3.08;;
53263;SDS011;39153;52.680;6.172;2023-05-02T02:30:25;8.10;;;3.17;;
53263;SDS011;39153;52.680;6.172;2023-05-02T02:32:51;9.70;;;3.20;;
53263;SDS011;39153;52.680;6.172;2023-05-02T02:35:17;9.68;;;3.30;;
53263;SDS011;39153;52.680;6.172;2023-05-02T02:37:46;10.40;;;3.40;;
53263;SDS011;39153;52.680;6.172;2023-05-02T02:40:45;7.95;;;3.28;;
53263;SDS011;39153;52.680;6.172;2023-05-02T02:43:33;13.00;;;3.55;;
53263;SDS011;39153;52.680;6.172;2023-05-02T02:48:47;19.60;;;4.90;;
53263;SDS011;39153;52.680;6.172;2023-05-02T02:56:38;17.35;;;4.45;;
53263;SDS011;39153;52.680;6.172;2023-05-02T03:01:38;21.85;;;4.97;;
53263;SDS011;39153;52.680;6.172;2023-05-02T03:04:07;19.00;;;4.90;;
53263;SDS011;39153;52.680;6.172;2023-05-02T03:06:36;15.75;;;3.80;;
53263;SDS011;39153;52.680;6.172;2023-05-02T03:09:02;14.93;;;4.03;;
53263;SDS011;39153;52.680;6.172;2023-05-02T03:11:28;21.25;;;3.90;;
53263;SDS011;39153;52.680;6.172;2023-05-02T03:13:54;18.55;;;3.88;;
53263;SDS011;39153;52.680;6.172;2023-05-02T03:19:04;20.85;;;4.53;;
53263;SDS011;39153;52.680;6.172;2023-05-02T03:21:31;22.42;;;4.20;;
53263;SDS011;39153;52.680;6.172;2023-05-02T03:24:00;20.05;;;4.28;;
53263;SDS011;39153;52.680;6.172;2023-05-02T03:26:27;22.40;;;4.18;;
53263;SDS011;39153;52.680;6.172;2023-05-02T03:28:53;19.40;;;4.05;;
53263;SDS011;39153;52.680;6.172;2023-05-02T03:31:19;17.58;;;3.80;;
53263;SDS011;39153;52.680;6.172;2023-05-02T03:33:45;23.60;;;4.55;;
53263;SDS011;39153;52.680;6.172;2023-05-02T03:36:12;25.25;;;5.40;;
53263;SDS011;39153;52.680;6.172;2023-05-02T03:38:37;22.92;;;4.18;;
53263;SDS011;39153;52.680;6.172;2023-05-02T03:41:03;32.25;;;5.03;;
53263;SDS011;39153;52.680;6.172;2023-05-02T03:43:29;18.83;;;4.68;;
53263;SDS011;39153;52.680;6.172;2023-05-02T03:45:56;21.73;;;5.00;;
53263;SDS011;39153;52.680;6.172;2023-05-02T03:48:22;21.75;;;4.38;;
53263;SDS011;39153;52.680;6.172;2023-05-02T03:50:49;20.15;;;4.20;;
53263;SDS011;39153;52.680;6.172;2023-05-02T03:53:14;17.23;;;4.40;;
53263;SDS011;39153;52.680;6.172;2023-05-02T03:55:41;20.67;;;4.05;;
53263;SDS011;39153;52.680;6.172;2023-05-02T03:58:07;18.55;;;4.70;;
53263;SDS011;39153;52.680;6.172;2023-05-02T04:00:34;19.83;;;4.75;;
53263;SDS011;39153;52.680;6.172;2023-05-02T04:03:01;19.90;;;4.22;;
53263;SDS011;39153;52.680;6.172;2023-05-02T04:05:27;25.98;;;4.65;;
53263;SDS011;39153;52.680;6.172;2023-05-02T04:07:53;16.55;;;3.67;;
53263;SDS011;39153;52.680;6.172;2023-05-02T04:10:19;21.70;;;4.40;;
53263;SDS011;39153;52.680;6.172;2023-05-02T04:12:45;15.98;;;4.22;;
53263;SDS011;39153;52.680;6.172;2023-05-02T04:15:10;20.15;;;4.28;;
53263;SDS011;39153;52.680;6.172;2023-05-02T04:17:36;14.48;;;3.58;;
53263;SDS011;39153;52.680;6.172;2023-05-02T04:20:03;20.92;;;3.90;;
53263;SDS011;39153;52.680;6.172;2023-05-02T04:22:29;19.65;;;3.70;;
53263;SDS011;39153;52.680;6.172;2023-05-02T04:24:55;22.98;;;4.50;;
53263;SDS011;39153;52.680;6.172;2023-05-02T04:27:21;17.55;;;3.65;;
53263;SDS011;39153;52.680;6.172;2023-05-02T04:29:47;18.10;;;4.00;;
53263;SDS011;39153;52.680;6.172;2023-05-02T04:32:14;23.23;;;3.80;;
53263;SDS011;39153;52.680;6.172;2023-05-02T04:34:40;24.70;;;4.70;;
53263;SDS011;39153;52.680;6.172;2023-05-02T04:37:06;16.52;;;3.40;;
53263;SDS011;39153;52.680;6.172;2023-05-02T04:39:32;16.77;;;3.40;;
53263;SDS011;39153;52.680;6.172;2023-05-02T04:41:58;29.67;;;3.58;;
53263;SDS011;39153;52.680;6.172;2023-05-02T04:44:24;24.83;;;3.53;;
53263;SDS011;39153;52.680;6.172;2023-05-02T04:46:50;22.90;;;4.40;;
53263;SDS011;39153;52.680;6.172;2023-05-02T04:49:15;22.63;;;3.33;;
53263;SDS011;39153;52.680;6.172;2023-05-02T04:51:41;19.10;;;2.85;;
53263;SDS011;39153;52.680;6.172;2023-05-02T04:54:07;9.95;;;2.88;;
53263;SDS011;39153;52.680;6.172;2023-05-02T04:56:33;14.45;;;2.45;;
53263;SDS011;39153;52.680;6.172;2023-05-02T04:58:59;12.50;;;3.25;;
53263;SDS011;39153;52.680;6.172;2023-05-02T05:01:25;16.27;;;3.13;;
53263;SDS011;39153;52.680;6.172;2023-05-02T05:03:54;18.70;;;3.63;;
53263;SDS011;39153;52.680;6.172;2023-05-02T05:06:20;15.93;;;3.53;;
53263;SDS011;39153;52.680;6.172;2023-05-02T05:08:46;14.27;;;3.45;;
53263;SDS011;39153;52.680;6.172;2023-05-02T05:11:12;17.98;;;3.05;;
53263;SDS011;39153;52.680;6.172;2023-05-02T05:13:39;13.18;;;2.75;;
53263;SDS011;39153;52.680;6.172;2023-05-02T05:16:06;12.88;;;2.45;;
53263;SDS011;39153;52.680;6.172;2023-05-02T05:18:32;15.60;;;2.90;;
53263;SDS011;39153;52.680;6.172;2023-05-02T05:21:04;20.73;;;2.97;;
53263;SDS011;39153;52.680;6.172;2023-05-02T05:23:34;12.77;;;3.08;;
53263;SDS011;39153;52.680;6.172;2023-05-02T05:26:13;8.63;;;2.05;;
53263;SDS011;39153;52.680;6.172;2023-05-02T05:28:40;14.52;;;2.30;;
53263;SDS011;39153;52.680;6.172;2023-05-02T05:31:08;9.57;;;2.30;;
53263;SDS011;39153;52.680;6.172;2023-05-02T05:33:36;8.13;;;1.85;;
53263;SDS011;39153;52.680;6.172;2023-05-02T05:36:12;16.05;;;2.35;;
53263;SDS011;39153;52.680;6.172;2023-05-02T05:38:41;11.13;;;2.65;;
53263;SDS011;39153;52.680;6.172;2023-05-02T05:41:07;12.88;;;2.08;;
53263;SDS011;39153;52.680;6.172;2023-05-02T05:43:33;12.30;;;2.53;;
53263;SDS011;39153;52.680;6.172;2023-05-02T05:45:59;10.85;;;2.00;;
53263;SDS011;39153;52.680;6.172;2023-05-02T05:48:25;10.07;;;1.77;;
53263;SDS011;39153;52.680;6.172;2023-05-02T05:50:51;12.40;;;1.90;;
53263;SDS011;39153;52.680;6.172;2023-05-02T05:53:17;10.23;;;2.00;;
53263;SDS011;39153;52.680;6.172;2023-05-02T05:55:43;13.52;;;1.95;;
53263;SDS011;39153;52.680;6.172;2023-05-02T05:58:09;8.15;;;2.05;;
53263;SDS011;39153;52.680;6.172;2023-05-02T06:00:38;9.98;;;1.83;;
53263;SDS011;39153;52.680;6.172;2023-05-02T06:03:05;11.80;;;2.22;;
53263;SDS011;39153;52.680;6.172;2023-05-02T06:05:33;10.68;;;2.17;;
53263;SDS011;39153;52.680;6.172;2023-05-02T06:07:59;9.63;;;2.22;;
53263;SDS011;39153;52.680;6.172;2023-05-02T06:10:25;8.55;;;2.10;;
53263;SDS011;39153;52.680;6.172;2023-05-02T06:12:50;12.82;;;1.92;;
53263;SDS011;39153;52.680;6.172;2023-05-02T06:15:16;9.02;;;1.85;;
53263;SDS011;39153;52.680;6.172;2023-05-02T06:17:42;8.15;;;1.80;;
53263;SDS011;39153;52.680;6.172;2023-05-02T06:20:08;12.70;;;2.55;;
53263;SDS011;39153;52.680;6.172;2023-05-02T06:22:34;7.90;;;1.67;;
53263;SDS011;39153;52.680;6.172;2023-05-02T06:25:00;9.05;;;1.85;;
53263;SDS011;39153;52.680;6.172;2023-05-02T06:27:26;8.85;;;1.80;;
53263;SDS011;39153;52.680;6.172;2023-05-02T06:29:52;7.35;;;2.20;;
53263;SDS011;39153;52.680;6.172;2023-05-02T06:32:18;11.30;;;2.45;;
53263;SDS011;39153;52.680;6.172;2023-05-02T06:34:44;10.85;;;1.83;;
53263;SDS011;39153;52.680;6.172;2023-05-02T06:37:10;9.20;;;2.00;;
53263;SDS011;39153;52.680;6.172;2023-05-02T06:39:36;13.20;;;2.33;;
53263;SDS011;39153;52.680;6.172;2023-05-02T06:42:02;12.07;;;2.22;;
53263;SDS011;39153;52.680;6.172;2023-05-02T06:44:28;9.68;;;1.92;;
53263;SDS011;39153;52.680;6.172;2023-05-02T06:46:53;12.60;;;1.98;;
53263;SDS011;39153;52.680;6.172;2023-05-02T06:49:20;12.02;;;2.75;;
53263;SDS011;39153;52.680;6.172;2023-05-02T06:51:46;11.00;;;2.25;;
53263;SDS011;39153;52.680;6.172;2023-05-02T06:54:12;10.50;;;1.95;;
53263;SDS011;39153;52.680;6.172;2023-05-02T06:56:38;9.02;;;1.98;;
53263;SDS011;39153;52.680;6.172;2023-05-02T06:59:04;5.35;;;1.45;;
53263;SDS011;39153;52.680;6.172;2023-05-02T07:01:30;8.63;;;2.22;;
53263;SDS011;39153;52.680;6.172;2023-05-02T07:03:56;11.85;;;2.03;;
53263;SDS011;39153;52.680;6.172;2023-05-02T07:06:22;11.95;;;2.25;;
53263;SDS011;39153;52.680;6.172;2023-05-02T07:08:48;10.05;;;2.05;;
53263;SDS011;39153;52.680;6.172;2023-05-02T07:11:13;12.43;;;2.70;;
53263;SDS011;39153;52.680;6.172;2023-05-02T07:13:39;8.35;;;2.13;;
53263;SDS011;39153;52.680;6.172;2023-05-02T07:16:05;10.43;;;2.53;;
53263;SDS011;39153;52.680;6.172;2023-05-02T07:18:31;12.45;;;2.05;;
53263;SDS011;39153;52.680;6.172;2023-05-02T07:20:57;9.77;;;2.30;;
53263;SDS011;39153;52.680;6.172;2023-05-02T07:23:22;11.68;;;2.33;;
53263;SDS011;39153;52.680;6.172;2023-05-02T07:25:49;14.65;;;2.80;;
53263;SDS011;39153;52.680;6.172;2023-05-02T07:28:14;6.45;;;1.90;;
53263;SDS011;39153;52.680;6.172;2023-05-02T07:30:40;7.97;;;2.10;;
53263;SDS011;39153;52.680;6.172;2023-05-02T07:33:06;9.52;;;2.45;;
53263;SDS011;39153;52.680;6.172;2023-05-02T07:35:31;11.23;;;2.10;;
53263;SDS011;39153;52.680;6.172;2023-05-02T07:37:57;12.07;;;2.97;;
53263;SDS011;39153;52.680;6.172;2023-05-02T07:40:23;9.70;;;2.50;;
53263;SDS011;39153;52.680;6.172;2023-05-02T07:42:48;13.63;;;2.50;;
53263;SDS011;39153;52.680;6.172;2023-05-02T07:45:15;11.80;;;2.53;;
53263;SDS011;39153;52.680;6.172;2023-05-02T07:47:40;9.18;;;2.60;;
53263;SDS011;39153;52.680;6.172;2023-05-02T07:50:06;9.85;;;2.30;;
53263;SDS011;39153;52.680;6.172;2023-05-02T07:52:33;10.80;;;2.60;;
53263;SDS011;39153;52.680;6.172;2023-05-02T07:54:58;10.73;;;2.60;;
53263;SDS011;39153;52.680;6.172;2023-05-02T07:57:25;13.45;;;2.65;;
53263;SDS011;39153;52.680;6.172;2023-05-02T07:59:51;9.95;;;2.45;;
53263;SDS011;39153;52.680;6.172;2023-05-02T08:02:16;11.30;;;2.60;;
53263;SDS011;39153;52.680;6.172;2023-05-02T08:04:44;11.15;;;2.20;;
53263;SDS011;39153;52.680;6.172;2023-05-02T08:07:11;9.88;;;2.50;;
53263;SDS011;39153;52.680;6.172;2023-05-02T08:09:37;12.32;;;2.60;;
53263;SDS011;39153;52.680;6.172;2023-05-02T08:12:02;9.32;;;2.65;;
53263;SDS011;39153;52.680;6.172;2023-05-02T08:14:28;8.93;;;2.65;;
53263;SDS011;39153;52.680;6.172;2023-05-02T08:16:54;7.10;;;2.08;;
53263;SDS011;39153;52.680;6.172;2023-05-02T08:19:20;12.05;;;3.08;;
53263;SDS011;39153;52.680;6.172;2023-05-02T08:21:45;10.40;;;2.50;;
53263;SDS011;39153;52.680;6.172;2023-05-02T08:24:11;10.27;;;2.53;;
53263;SDS011;39153;52.680;6.172;2023-05-02T08:26:37;12.40;;;2.75;;
53263;SDS011;39153;52.680;6.172;2023-05-02T08:29:02;12.18;;;2.58;;
53263;SDS011;39153;52.680;6.172;2023-05-02T08:31:28;10.07;;;3.08;;
53263;SDS011;39153;52.680;6.172;2023-05-02T08:33:55;12.35;;;3.03;;
53263;SDS011;39153;52.680;6.172;2023-05-02T08:36:20;9.65;;;2.33;;
53263;SDS011;39153;52.680;6.172;2023-05-02T08:38:46;12.80;;;2.70;;
53263;SDS011;39153;52.680;6.172;2023-05-02T08:41:14;9.00;;;2.67;;
53263;SDS011;39153;52.680;6.172;2023-05-02T08:43:41;9.00;;;2.15;;
53263;SDS011;39153;52.680;6.172;2023-05-02T08:46:09;10.10;;;2.50;;
53263;SDS011;39153;52.680;6.172;2023-05-02T08:48:36;8.98;;;2.00;;
53263;SDS011;39153;52.680;6.172;2023-05-02T08:51:03;9.55;;;2.25;;
53263;SDS011;39153;52.680;6.172;2023-05-02T08:53:33;10.45;;;2.10;;
53263;SDS011;39153;52.680;6.172;2023-05-02T08:56:00;9.55;;;2.50;;
53263;SDS011;39153;52.680;6.172;2023-05-02T08:58:25;7.45;;;2.13;;
53263;SDS011;39153;52.680;6.172;2023-05-02T09:00:51;7.93;;;2.35;;
53263;SDS011;39153;52.680;6.172;2023-05-02T09:03:28;7.90;;;2.25;;
53263;SDS011;39153;52.680;6.172;2023-05-02T09:06:02;7.78;;;2.20;;
53263;SDS011;39153;52.680;6.172;2023-05-02T09:08:31;13.32;;;2.50;;
53263;SDS011;39153;52.680;6.172;2023-05-02T09:10:58;14.35;;;2.55;;
53263;SDS011;39153;52.680;6.172;2023-05-02T09:16:01;8.45;;;2.03;;
53263;SDS011;39153;52.680;6.172;2023-05-02T09:18:31;6.57;;;2.00;;
53263;SDS011;39153;52.680;6.172;2023-05-02T09:21:03;9.18;;;2.42;;
53263;SDS011;39153;52.680;6.172;2023-05-02T09:26:10;12.98;;;2.65;;
53263;SDS011;39153;52.680;6.172;2023-05-02T09:28:45;10.18;;;2.92;;
53263;SDS011;39153;52.680;6.172;2023-05-02T09:31:16;10.27;;;3.08;;
53263;SDS011;39153;52.680;6.172;2023-05-02T09:33:55;10.18;;;2.60;;
53263;SDS011;39153;52.680;6.172;2023-05-02T09:36:22;9.85;;;2.80;;
53263;SDS011;39153;52.680;6.172;2023-05-02T09:38:48;11.43;;;2.50;;
53263;SDS011;39153;52.680;6.172;2023-05-02T09:41:17;6.45;;;2.33;;
53263;SDS011;39153;52.680;6.172;2023-05-02T09:43:53;8.85;;;2.42;;
53263;SDS011;39153;52.680;6.172;2023-05-02T09:46:23;10.32;;;2.78;;
53263;SDS011;39153;52.680;6.172;2023-05-02T09:48:52;7.18;;;2.10;;
53263;SDS011;39153;52.680;6.172;2023-05-02T09:51:20;12.82;;;2.60;;
53263;SDS011;39153;52.680;6.172;2023-05-02T09:53:46;8.77;;;2.88;;
53263;SDS011;39153;52.680;6.172;2023-05-02T09:56:12;9.60;;;2.78;;
53263;SDS011;39153;52.680;6.172;2023-05-02T09:58:39;7.95;;;2.92;;
53263;SDS011;39153;52.680;6.172;2023-05-02T10:01:04;10.60;;;2.58;;
53263;SDS011;39153;52.680;6.172;2023-05-02T10:03:30;10.02;;;2.53;;
53263;SDS011;39153;52.680;6.172;2023-05-02T10:06:00;11.60;;;2.53;;
53263;SDS011;39153;52.680;6.172;2023-05-02T10:08:26;10.45;;;2.90;;
53263;SDS011;39153;52.680;6.172;2023-05-02T10:10:56;11.48;;;2.33;;
53263;SDS011;39153;52.680;6.172;2023-05-02T10:13:45;9.60;;;2.25;;
53263;SDS011;39153;52.680;6.172;2023-05-02T10:16:11;8.75;;;2.55;;
53263;SDS011;39153;52.680;6.172;2023-05-02T10:18:47;11.55;;;2.70;;
53263;SDS011;39153;52.680;6.172;2023-05-02T10:21:24;8.32;;;2.35;;
53263;SDS011;39153;52.680;6.172;2023-05-02T10:23:51;12.05;;;2.67;;
53263;SDS011;39153;52.680;6.172;2023-05-02T10:26:18;6.35;;;1.75;;
53263;SDS011;39153;52.680;6.172;2023-05-02T10:28:47;10.38;;;2.17;;
53263;SDS011;39153;52.680;6.172;2023-05-02T10:31:15;6.85;;;1.70;;
53263;SDS011;39153;52.680;6.172;2023-05-02T10:33:42;7.18;;;1.80;;
53263;SDS011;39153;52.680;6.172;2023-05-02T10:36:09;10.57;;;2.15;;
53263;SDS011;39153;52.680;6.172;2023-05-02T10:38:38;7.63;;;1.60;;
53263;SDS011;39153;52.680;6.172;2023-05-02T10:41:09;7.00;;;1.60;;
53263;SDS011;39153;52.680;6.172;2023-05-02T10:43:38;8.15;;;1.52;;
53263;SDS011;39153;52.680;6.172;2023-05-02T10:46:51;5.03;;;1.48;;
53263;SDS011;39153;52.680;6.172;2023-05-02T10:49:05;7.82;;;1.67;;
53263;SDS011;39153;52.680;6.172;2023-05-02T10:51:36;5.93;;;1.98;;
53263;SDS011;39153;52.680;6.172;2023-05-02T11:02:01;6.00;;;1.70;;
53263;SDS011;39153;52.680;6.172;2023-05-02T11:07:25;5.93;;;1.80;;
53263;SDS011;39153;52.680;6.172;2023-05-02T11:09:51;7.50;;;2.25;;
53263;SDS011;39153;52.680;6.172;2023-05-02T11:15:12;6.20;;;1.90;;
53263;SDS011;39153;52.680;6.172;2023-05-02T11:20:43;6.40;;;1.63;;
53263;SDS011;39153;52.680;6.172;2023-05-02T11:25:45;6.10;;;1.85;;
53263;SDS011;39153;52.680;6.172;2023-05-02T11:31:03;5.93;;;1.38;;
53263;SDS011;39153;52.680;6.172;2023-05-02T11:33:30;5.45;;;1.20;;
53263;SDS011;39153;52.680;6.172;2023-05-02T11:35:56;7.47;;;1.63;;
53263;SDS011;39153;52.680;6.172;2023-05-02T11:38:22;7.95;;;1.65;;
53263;SDS011;39153;52.680;6.172;2023-05-02T11:40:50;6.47;;;1.38;;
53263;SDS011;39153;52.680;6.172;2023-05-02T11:43:16;6.85;;;1.63;;
53263;SDS011;39153;52.680;6.172;2023-05-02T11:45:43;5.07;;;1.38;;
53263;SDS011;39153;52.680;6.172;2023-05-02T11:48:09;6.38;;;1.40;;
53263;SDS011;39153;52.680;6.172;2023-05-02T11:50:42;4.65;;;1.10;;
53263;SDS011;39153;52.680;6.172;2023-05-02T11:53:10;4.90;;;1.30;;
53263;SDS011;39153;52.680;6.172;2023-05-02T11:55:43;7.35;;;1.38;;
53263;SDS011;39153;52.680;6.172;2023-05-02T11:58:13;7.25;;;1.48;;
53263;SDS011;39153;52.680;6.172;2023-05-02T12:00:40;6.15;;;1.30;;
53263;SDS011;39153;52.680;6.172;2023-05-02T12:03:18;8.63;;;1.45;;
53263;SDS011;39153;52.680;6.172;2023-05-02T12:05:57;6.10;;;1.50;;
53263;SDS011;39153;52.680;6.172;2023-05-02T12:08:36;6.13;;;1.23;;
53263;SDS011;39153;52.680;6.172;2023-05-02T12:11:02;4.45;;;1.20;;
53263;SDS011;39153;52.680;6.172;2023-05-02T12:13:27;4.80;;;1.30;;
53263;SDS011;39153;52.680;6.172;2023-05-02T12:15:54;5.07;;;1.50;;
53263;SDS011;39153;52.680;6.172;2023-05-02T12:18:21;4.15;;;1.27;;
53263;SDS011;39153;52.680;6.172;2023-05-02T12:20:48;5.93;;;1.27;;
53263;SDS011;39153;52.680;6.172;2023-05-02T12:23:16;7.30;;;1.58;;
53263;SDS011;39153;52.680;6.172;2023-05-02T12:25:43;5.28;;;1.40;;
53263;SDS011;39153;52.680;6.172;2023-05-02T12:28:09;5.88;;;1.40;;
53263;SDS011;39153;52.680;6.172;2023-05-02T12:30:36;5.32;;;1.23;;
53263;SDS011;39153;52.680;6.172;2023-05-02T12:33:02;4.93;;;1.35;;
53263;SDS011;39153;52.680;6.172;2023-05-02T12:35:30;5.05;;;1.55;;
53263;SDS011;39153;52.680;6.172;2023-05-02T12:40:51;5.68;;;1.40;;
53263;SDS011;39153;52.680;6.172;2023-05-02T12:43:21;5.35;;;1.63;;
53263;SDS011;39153;52.680;6.172;2023-05-02T12:45:47;5.40;;;2.10;;
53263;SDS011;39153;52.680;6.172;2023-05-02T12:50:50;4.68;;;1.20;;
53263;SDS011;39153;52.680;6.172;2023-05-02T12:53:16;7.05;;;1.60;;
53263;SDS011;39153;52.680;6.172;2023-05-02T12:55:42;6.32;;;1.27;;
53263;SDS011;39153;52.680;6.172;2023-05-02T12:58:11;8.40;;;1.50;;
53263;SDS011;39153;52.680;6.172;2023-05-02T13:00:38;6.72;;;1.58;;
53263;SDS011;39153;52.680;6.172;2023-05-02T13:03:06;5.07;;;1.20;;
53263;SDS011;39153;52.680;6.172;2023-05-02T13:05:33;5.63;;;1.25;;
53263;SDS011;39153;52.680;6.172;2023-05-02T13:08:00;5.38;;;1.55;;
53263;SDS011;39153;52.680;6.172;2023-05-02T13:10:26;5.90;;;1.40;;
53263;SDS011;39153;52.680;6.172;2023-05-02T13:12:52;7.82;;;1.50;;
53263;SDS011;39153;52.680;6.172;2023-05-02T13:15:19;4.65;;;1.55;;
53263;SDS011;39153;52.680;6.172;2023-05-02T13:17:45;7.35;;;1.48;;
53263;SDS011;39153;52.680;6.172;2023-05-02T13:20:11;6.70;;;1.50;;
53263;SDS011;39153;52.680;6.172;2023-05-02T13:22:37;5.55;;;1.33;;
53263;SDS011;39153;52.680;6.172;2023-05-02T13:25:03;4.85;;;1.30;;
53263;SDS011;39153;52.680;6.172;2023-05-02T13:27:30;5.38;;;1.40;;
53263;SDS011;39153;52.680;6.172;2023-05-02T13:29:56;5.00;;;1.55;;
53263;SDS011;39153;52.680;6.172;2023-05-02T13:32:21;5.72;;;1.70;;
53263;SDS011;39153;52.680;6.172;2023-05-02T13:34:47;5.38;;;1.40;;
53263;SDS011;39153;52.680;6.172;2023-05-02T13:37:13;5.68;;;1.58;;
53263;SDS011;39153;52.680;6.172;2023-05-02T13:39:38;5.55;;;1.50;;
53263;SDS011;39153;52.680;6.172;2023-05-02T13:42:04;7.18;;;1.70;;
53263;SDS011;39153;52.680;6.172;2023-05-02T13:44:30;6.15;;;1.60;;
53263;SDS011;39153;52.680;6.172;2023-05-02T13:46:56;4.88;;;1.60;;
53263;SDS011;39153;52.680;6.172;2023-05-02T13:49:22;5.88;;;1.52;;
53263;SDS011;39153;52.680;6.172;2023-05-02T13:51:48;4.38;;;1.50;;
53263;SDS011;39153;52.680;6.172;2023-05-02T13:54:14;4.22;;;1.30;;
53263;SDS011;39153;52.680;6.172;2023-05-02T13:56:40;5.45;;;1.50;;
53263;SDS011;39153;52.680;6.172;2023-05-02T13:59:06;4.68;;;1.42;;
53263;SDS011;39153;52.680;6.172;2023-05-02T14:01:32;6.22;;;1.67;;
53263;SDS011;39153;52.680;6.172;2023-05-02T14:03:57;10.10;;;1.67;;
53263;SDS011;39153;52.680;6.172;2023-05-02T14:06:23;7.38;;;1.70;;
53263;SDS011;39153;52.680;6.172;2023-05-02T14:08:49;6.40;;;1.60;;
53263;SDS011;39153;52.680;6.172;2023-05-02T14:11:18;5.97;;;1.50;;
53263;SDS011;39153;52.680;6.172;2023-05-02T14:13:43;7.10;;;1.65;;
53263;SDS011;39153;52.680;6.172;2023-05-02T14:16:09;5.13;;;1.80;;
53263;SDS011;39153;52.680;6.172;2023-05-02T14:18:35;5.30;;;1.65;;
53263;SDS011;39153;52.680;6.172;2023-05-02T14:21:01;5.35;;;1.52;;
53263;SDS011;39153;52.680;6.172;2023-05-02T14:23:28;4.05;;;1.58;;
53263;SDS011;39153;52.680;6.172;2023-05-02T14:25:53;4.10;;;1.50;;
53263;SDS011;39153;52.680;6.172;2023-05-02T14:28:20;5.00;;;1.83;;
53263;SDS011;39153;52.680;6.172;2023-05-02T14:30:49;4.80;;;1.20;;
53263;SDS011;39153;52.680;6.172;2023-05-02T14:33:15;3.22;;;1.30;;
53263;SDS011;39153;52.680;6.172;2023-05-02T14:35:41;5.70;;;1.40;;
53263;SDS011;39153;52.680;6.172;2023-05-02T14:38:07;5.35;;;1.08;;
53263;SDS011;39153;52.680;6.172;2023-05-02T14:40:33;6.50;;;1.20;;
53263;SDS011;39153;52.680;6.172;2023-05-02T14:42:58;6.18;;;1.40;;
53263;SDS011;39153;52.680;6.172;2023-05-02T14:45:25;6.10;;;1.40;;
53263;SDS011;39153;52.680;6.172;2023-05-02T14:47:51;4.63;;;1.30;;
53263;SDS011;39153;52.680;6.172;2023-05-02T14:50:17;4.72;;;1.45;;
53263;SDS011;39153;52.680;6.172;2023-05-02T14:52:42;4.63;;;1.45;;
53263;SDS011;39153;52.680;6.172;2023-05-02T14:55:11;6.32;;;1.23;;
53263;SDS011;39153;52.680;6.172;2023-05-02T14:57:37;5.93;;;1.55;;
53263;SDS011;39153;52.680;6.172;2023-05-02T15:00:03;4.25;;;1.23;;
53263;SDS011;39153;52.680;6.172;2023-05-02T15:02:32;6.05;;;1.30;;
53263;SDS011;39153;52.680;6.172;2023-05-02T15:04:58;10.60;;;1.58;;
53263;SDS011;39153;52.680;6.172;2023-05-02T15:07:24;4.90;;;1.15;;
53263;SDS011;39153;52.680;6.172;2023-05-02T15:09:50;5.65;;;1.80;;
53263;SDS011;39153;52.680;6.172;2023-05-02T15:12:16;4.63;;;1.05;;
53263;SDS011;39153;52.680;6.172;2023-05-02T15:14:42;4.00;;;1.20;;
53263;SDS011;39153;52.680;6.172;2023-05-02T15:17:07;3.55;;;1.30;;
53263;SDS011;39153;52.680;6.172;2023-05-02T15:19:33;5.88;;;1.27;;
53263;SDS011;39153;52.680;6.172;2023-05-02T15:21:59;6.97;;;1.27;;
53263;SDS011;39153;52.680;6.172;2023-05-02T15:24:25;4.85;;;1.35;;
53263;SDS011;39153;52.680;6.172;2023-05-02T15:26:51;6.63;;;1.05;;
53263;SDS011;39153;52.680;6.172;2023-05-02T15:29:17;5.88;;;1.20;;
53263;SDS011;39153;52.680;6.172;2023-05-02T15:31:43;4.80;;;1.13;;
53263;SDS011;39153;52.680;6.172;2023-05-02T15:34:08;5.50;;;0.98;;
53263;SDS011;39153;52.680;6.172;2023-05-02T15:36:34;3.88;;;0.82;;
53263;SDS011;39153;52.680;6.172;2023-05-02T15:39:04;3.55;;;0.90;;
53263;SDS011;39153;52.680;6.172;2023-05-02T15:41:30;5.93;;;0.90;;